M I D A S
Marine Information and Data Acquisition System
Tripno 1018 of the Zeeleeuw from 2005-02-28 08:10:00 to 2005-02-28 16:05:00
Back to CruiseResearch ActivitiesStationsMapUnderway DataData graphs

EquipmentUnitsComment
TimeDGPSUTC
LatitudeDGPSDM.mWGS84
LongitudeDGPSDM.mWGS84
HeadingGyrodeg 
SOGDGPSknotsSpeed over ground
COGDGPSdegCourse over ground
DepthEcho soundermeters200 kHz
Missing or incorrect values are displayed as -999
Navigation data collected by the RV Zeeleeuw from 2005-02-28 08:10:00 to 2005-02-28 16:05:00
                                                                                    Next 1000 lines
Time Latitude Longitude Heading SOG COG Depth
2005-02-28 08:10:07 51°13.595 2°56.103 127 -999 337 5.8
2005-02-28 08:10:13 51°13.595 2°56.103 127.1 -999 348 5.8
2005-02-28 08:10:17 51°13.595 2°56.103 127.2 -999 348 5.8
2005-02-28 08:10:23 51°13.595 2°56.104 127.3 0.1 54 5.8
2005-02-28 08:10:27 51°13.595 2°56.104 127.3 0.1 54 5.8
2005-02-28 08:10:33 51°13.595 2°56.104 127.1 0.1 54 5.8
2005-02-28 08:10:37 51°13.595 2°56.104 126.6 -999 102 5.8
2005-02-28 08:10:43 51°13.595 2°56.104 125.8 -999 102 5.8
2005-02-28 08:10:47 51°13.595 2°56.104 124.8 -999 102 5.8
2005-02-28 08:10:53 51°13.595 2°56.104 123.1 -999 102 5.8
2005-02-28 08:10:57 51°13.595 2°56.103 121.8 -999 102 5.8
2005-02-28 08:11:03 51°13.595 2°56.103 120.8 0.1 184 5.8
2005-02-28 08:11:07 51°13.595 2°56.103 119.5 0.1 184 5.8
2005-02-28 08:11:12 51°13.594 2°56.103 117.9 0.1 181 5.8
2005-02-28 08:11:18 51°13.594 2°56.103 116.8 0.1 181 5.8
2005-02-28 08:11:23 51°13.594 2°56.103 115.4 0.2 275 5.8
2005-02-28 08:11:27 51°13.595 2°56.102 114.7 0.2 275 5.8
2005-02-28 08:11:33 51°13.595 2°56.099 114.6 0.6 291 5.7
2005-02-28 08:11:37 51°13.596 2°56.097 115.2 1 290 5.7
2005-02-28 08:11:43 51°13.597 2°56.093 116.1 1.6 295 5.7
2005-02-28 08:11:48 51°13.598 2°56.089 117 1.6 295 5.7
2005-02-28 08:11:53 51°13.6 2°56.085 118.5 2.1 301 -999
2005-02-28 08:11:58 51°13.602 2°56.079 119.8 2.1 301 -999
2005-02-28 08:12:03 51°13.604 2°56.075 120.3 2.8 303 -999
2005-02-28 08:12:08 51°13.606 2°56.068 119.9 3.1 302 -999
2005-02-28 08:12:13 51°13.609 2°56.061 119.3 3.1 302 -999
2005-02-28 08:12:17 51°13.611 2°56.056 118.3 3.5 299 -999
2005-02-28 08:12:23 51°13.613 2°56.048 117.1 3.5 299 -999
2005-02-28 08:12:28 51°13.616 2°56.04 116.2 3.7 297 -999
2005-02-28 08:12:33 51°13.618 2°56.031 115.7 3.7 297 -999
2005-02-28 08:12:37 51°13.62 2°56.024 115.4 4.2 294 -999
2005-02-28 08:12:43 51°13.623 2°56.014 115.1 4.2 294 -999
2005-02-28 08:12:47 51°13.625 2°56.007 114.9 4.5 293 -999
2005-02-28 08:12:53 51°13.628 2°55.994 114.9 4.6 292 -999
2005-02-28 08:12:57 51°13.63 2°55.986 115.4 4.8 292 -999
2005-02-28 08:13:03 51°13.633 2°55.975 116.6 4.9 293 -999
2005-02-28 08:13:07 51°13.635 2°55.966 118.2 5 294 -999
2005-02-28 08:13:13 51°13.639 2°55.953 119.7 5 294 -999
2005-02-28 08:13:17 51°13.642 2°55.944 121.2 5.4 297 -999
2005-02-28 08:13:23 51°13.646 2°55.933 122.8 5.4 298 -999
2005-02-28 08:13:28 51°13.65 2°55.922 125.4 5.4 298 -999
2005-02-28 08:13:33 51°13.655 2°55.911 127.3 5.5 302 -999
2005-02-28 08:13:37 51°13.659 2°55.903 129.4 5.6 305 -999
2005-02-28 08:13:43 51°13.664 2°55.892 131.2 5.6 305 -999
2005-02-28 08:13:48 51°13.669 2°55.882 132.6 5.6 308 -999
2005-02-28 08:13:53 51°13.674 2°55.872 133.8 5.6 308 -999
2005-02-28 08:13:57 51°13.679 2°55.865 134.7 5.7 311 -999
2005-02-28 08:14:03 51°13.685 2°55.854 135.2 5.8 312 -999
2005-02-28 08:14:07 51°13.69 2°55.845 135.6 5.8 313 -999
2005-02-28 08:14:13 51°13.696 2°55.834 135.6 5.8 313 -999
2005-02-28 08:14:18 51°13.702 2°55.825 135.2 5.8 313 -999
2005-02-28 08:14:23 51°13.707 2°55.816 134.3 5.8 312 -999
2005-02-28 08:14:28 51°13.712 2°55.805 133.5 5.8 312 -999
2005-02-28 08:14:33 51°13.718 2°55.796 132 5.8 312 -999
2005-02-28 08:14:37 51°13.721 2°55.788 130.4 5.5 309 -999
2005-02-28 08:14:43 51°13.726 2°55.778 128 5.3 308 -999
2005-02-28 08:14:49 51°13.731 2°55.767 126.3 5.3 308 -999
2005-02-28 08:14:53 51°13.734 2°55.758 124.1 5.2 305 -999
2005-02-28 08:14:57 51°13.737 2°55.75 121.9 5.1 303 -999
2005-02-28 08:15:03 51°13.741 2°55.739 119.4 5 301 -999
2005-02-28 08:15:08 51°13.744 2°55.729 116.6 5 301 -999
2005-02-28 08:15:13 51°13.747 2°55.72 113.7 5 301 -999
2005-02-28 08:15:17 51°13.749 2°55.713 111.1 4.4 293 -999
2005-02-28 08:15:23 51°13.751 2°55.703 109.1 4.3 292 -999
2005-02-28 08:15:29 51°13.753 2°55.695 107.4 4.3 292 -999
2005-02-28 08:15:33 51°13.754 2°55.69 105.2 3.3 290 -999
2005-02-28 08:15:37 51°13.755 2°55.686 102.2 2.7 292 8.5
2005-02-28 08:15:42 51°13.756 2°55.683 99 1.9 293 8.5
2005-02-28 08:15:47 51°13.757 2°55.682 95.8 1.9 293 8.5
2005-02-28 08:15:53 51°13.758 2°55.681 91.5 0.8 307 8.6
2005-02-28 08:15:57 51°13.759 2°55.682 85.5 0.7 21 8.5
2005-02-28 08:16:03 51°13.76 2°55.685 80.8 0.7 21 8.5
2005-02-28 08:16:07 51°13.761 2°55.686 74.2 1.4 47 8.5
2005-02-28 08:16:13 51°13.763 2°55.688 67.7 1.4 42 8.5
2005-02-28 08:16:17 51°13.764 2°55.689 63.2 0.9 34 8.4
2005-02-28 08:16:22 51°13.764 2°55.689 59.9 0.5 354 8.5
2005-02-28 08:16:27 51°13.765 2°55.688 56.5 0.4 337 8.5
2005-02-28 08:16:33 51°13.765 2°55.686 53.6 0.4 337 8.5
2005-02-28 08:16:38 51°13.764 2°55.684 51.3 0.9 252 8.5
2005-02-28 08:16:43 51°13.763 2°55.681 49.4 0.9 252 8.5
2005-02-28 08:16:47 51°13.762 2°55.678 47.7 0.9 252 8.5
2005-02-28 08:16:53 51°13.761 2°55.674 46 0.9 252 -999
2005-02-28 08:16:58 51°13.76 2°55.671 44 1.7 235 -999
2005-02-28 08:17:03 51°13.759 2°55.669 42.1 1.2 245 -999
2005-02-28 08:17:07 51°13.759 2°55.668 40.6 0.4 320 7.9
2005-02-28 08:17:13 51°13.761 2°55.668 36.2 1 357 -999
2005-02-28 08:17:17 51°13.764 2°55.669 30.9 1 357 7.6
2005-02-28 08:17:22 51°13.767 2°55.669 23.2 2.4 4 -999
2005-02-28 08:17:28 51°13.772 2°55.669 14.6 2.4 4 -999
2005-02-28 08:17:33 51°13.776 2°55.668 5.6 3 357 5.4
2005-02-28 08:17:37 51°13.779 2°55.667 358 3 357 8.8
2005-02-28 08:17:41 51°13.783 2°55.665 353 3.3 348 8.9
2005-02-28 08:17:47 51°13.789 2°55.663 349.2 3.3 348 8.8
2005-02-28 08:17:53 51°13.796 2°55.659 346.9 4.4 342 8.7
2005-02-28 08:17:57 51°13.801 2°55.656 344.9 4.7 340 9
2005-02-28 08:18:03 51°13.809 2°55.651 343.7 5 341 8.9
2005-02-28 08:18:07 51°13.815 2°55.648 342.6 5.4 339 8.8
2005-02-28 08:18:13 51°13.824 2°55.641 341.5 5.6 339 9
2005-02-28 08:18:17 51°13.832 2°55.636 340.5 5.6 339 8.8
2005-02-28 08:18:22 51°13.841 2°55.63 340 5.6 339 8.7
2005-02-28 08:18:28 51°13.852 2°55.622 339.6 5.6 339 8.7
2005-02-28 08:18:32 51°13.861 2°55.615 339.3 7.9 336 8.1
2005-02-28 08:18:37 51°13.871 2°55.608 339.3 7.9 336 8.1
2005-02-28 08:18:43 51°13.883 2°55.599 339.3 8.3 336 8.2
2005-02-28 08:18:47 51°13.892 2°55.592 338.3 8.3 336 8.1
2005-02-28 08:18:53 51°13.906 2°55.581 337.9 9 335 8.1
2005-02-28 08:18:57 51°13.917 2°55.574 338.9 9.3 335 -999
2005-02-28 08:19:03 51°13.93 2°55.564 338.9 9.5 335 8.1
2005-02-28 08:19:08 51°13.942 2°55.554 339 9.5 335 -999
2005-02-28 08:19:13 51°13.955 2°55.545 339.4 9.7 336 7.9
2005-02-28 08:19:17 51°13.966 2°55.537 339.5 9.7 336 7.9
2005-02-28 08:19:23 51°13.98 2°55.527 339.1 9.9 336 8
2005-02-28 08:19:27 51°13.991 2°55.519 339.5 9.9 336 8
2005-02-28 08:19:33 51°14.005 2°55.509 340.6 10 337 8
2005-02-28 08:19:37 51°14.016 2°55.501 341.1 10 337 8
2005-02-28 08:19:43 51°14.03 2°55.491 340.7 10 337 7.9
2005-02-28 08:19:47 51°14.042 2°55.482 340.6 10 336 7.9
2005-02-28 08:19:53 51°14.055 2°55.473 340.4 10.1 336 7.9
2005-02-28 08:19:57 51°14.067 2°55.464 340 10.1 336 7.9
2005-02-28 08:20:02 51°14.078 2°55.456 339.8 10.1 336 7.8
2005-02-28 08:20:07 51°14.091 2°55.446 339.2 10.2 335 7.8
2005-02-28 08:20:13 51°14.107 2°55.434 338.9 10.3 335 7.9
2005-02-28 08:20:18 51°14.12 2°55.423 338.4 10.3 335 8.1
2005-02-28 08:20:21 51°14.129 2°55.416 337.4 10.3 335 8.1
2005-02-28 08:20:27 51°14.143 2°55.404 337.3 10.3 335 8.2
2005-02-28 08:20:33 51°14.158 2°55.39 337 10.6 330 8.6
2005-02-28 08:20:37 51°14.169 2°55.379 335 10.6 330 7.8
2005-02-28 08:20:42 51°14.181 2°55.367 333.4 10.7 328 7.9
2005-02-28 08:20:47 51°14.193 2°55.354 332.3 10.7 326 7.9
2005-02-28 08:20:53 51°14.208 2°55.338 330.7 10.7 325 8.6
2005-02-28 08:20:57 51°14.218 2°55.324 328.7 10.7 323 8.6
2005-02-28 08:21:02 51°14.228 2°55.311 327 10.7 322 7.8
2005-02-28 08:21:07 51°14.24 2°55.293 325 10.7 320 7.9
2005-02-28 08:21:13 51°14.252 2°55.275 322.7 10.7 320 7.8
2005-02-28 08:21:17 51°14.261 2°55.259 319.9 10.7 320 7.8
2005-02-28 08:21:23 51°14.272 2°55.239 317.6 10.8 313 7.8
2005-02-28 08:21:27 51°14.281 2°55.223 316.9 10.8 312 7.8
2005-02-28 08:21:32 51°14.291 2°55.205 316.6 10.9 311 7.8
2005-02-28 08:21:37 51°14.3 2°55.188 315.3 10.9 311 7.8
2005-02-28 08:21:43 51°14.311 2°55.165 313.5 11 309 8.4
2005-02-28 08:21:47 51°14.32 2°55.148 312.7 11.1 309 8.3
2005-02-28 08:21:53 51°14.331 2°55.127 313.1 11.3 310 7.9
2005-02-28 08:21:57 51°14.34 2°55.109 313.4 11.4 309 7.9
2005-02-28 08:22:02 51°14.35 2°55.09 313.5 11.4 309 7.9
2005-02-28 08:22:07 51°14.359 2°55.072 314.2 11.5 310 7.9
2005-02-28 08:22:12 51°14.371 2°55.05 314.5 11.7 309 7.9
2005-02-28 08:22:17 51°14.381 2°55.029 314.2 11.7 309 8
2005-02-28 08:22:22 51°14.39 2°55.01 313.5 11.9 306 8
2005-02-28 08:22:27 51°14.399 2°54.985 311.6 12 304 8.1
2005-02-28 08:22:33 51°14.408 2°54.96 307.7 12 304 8.1
2005-02-28 08:22:37 51°14.414 2°54.938 304.8 12 304 8.1
2005-02-28 08:22:43 51°14.421 2°54.909 301.2 12 304 8.1
2005-02-28 08:22:47 51°14.425 2°54.888 297.2 12 304 8.1
2005-02-28 08:22:53 51°14.431 2°54.854 293.9 12 304 8.1
2005-02-28 08:22:57 51°14.434 2°54.833 291.9 12.3 284 8
2005-02-28 08:23:03 51°14.438 2°54.803 289.5 12.4 283 8
2005-02-28 08:23:07 51°14.44 2°54.778 288 12.6 279 8.1
2005-02-28 08:23:12 51°14.442 2°54.751 286.5 12.6 279 8.1
2005-02-28 08:23:17 51°14.444 2°54.726 284.6 12.6 279 8.1
2005-02-28 08:23:23 51°14.446 2°54.691 283.5 12.8 276 8.1
2005-02-28 08:23:27 51°14.448 2°54.665 283.4 12.8 276 8.1
2005-02-28 08:23:33 51°14.45 2°54.635 283.5 12.9 277 8.1
2005-02-28 08:23:37 51°14.451 2°54.609 283.9 12.9 276 8.2
2005-02-28 08:23:43 51°14.453 2°54.577 283 13 274 8.1
2005-02-28 08:23:48 51°14.453 2°54.548 281.9 13 274 8.2
2005-02-28 08:23:53 51°14.454 2°54.52 280.1 13.1 272 8.1
2005-02-28 08:23:57 51°14.454 2°54.494 279.2 13.1 271 8.2
2005-02-28 08:24:03 51°14.454 2°54.462 278.1 13.1 271 8.2
2005-02-28 08:24:07 51°14.453 2°54.439 276.5 13.1 271 8.2
2005-02-28 08:24:13 51°14.449 2°54.404 272.7 13.2 263 8.2
2005-02-28 08:24:17 51°14.446 2°54.378 268.9 13.2 263 8.1
2005-02-28 08:24:22 51°14.442 2°54.35 266.3 13.3 258 8.3
2005-02-28 08:24:27 51°14.438 2°54.321 264 13.3 258 8
2005-02-28 08:24:33 51°14.433 2°54.29 262.1 13.3 258 7.9
2005-02-28 08:24:37 51°14.428 2°54.265 260.4 13.3 253 7.8
2005-02-28 08:24:43 51°14.421 2°54.234 258.8 13.3 253 5.7
2005-02-28 08:24:47 51°14.415 2°54.213 255.8 13.3 253 7.8
2005-02-28 08:24:53 51°14.405 2°54.181 251.9 13.3 246 7.7
2005-02-28 08:24:57 51°14.397 2°54.158 248.2 13.3 246 7.7
2005-02-28 08:25:03 51°14.387 2°54.129 245.7 13.5 242 5.7
2005-02-28 08:25:07 51°14.379 2°54.109 243.8 13.5 242 7.6
2005-02-28 08:25:13 51°14.367 2°54.078 241.8 13.5 242 5.7
2005-02-28 08:25:17 51°14.358 2°54.055 241.6 13.7 237 7.7
2005-02-28 08:25:22 51°14.348 2°54.029 240.9 13.7 239 7.7
2005-02-28 08:25:27 51°14.338 2°54.003 240.8 13.8 237 5.7
2005-02-28 08:25:33 51°14.326 2°53.975 240.9 13.8 237 5.7
2005-02-28 08:25:38 51°14.317 2°53.948 240.6 13.8 237 -999
2005-02-28 08:25:43 51°14.306 2°53.922 241.6 13.9 239 5.7
2005-02-28 08:25:47 51°14.299 2°53.901 241.1 13.9 237 7.6
2005-02-28 08:25:53 51°14.286 2°53.87 241.7 13.9 237 7.6
2005-02-28 08:25:58 51°14.276 2°53.843 242.2 13.9 237 7.5
2005-02-28 08:26:02 51°14.268 2°53.819 241.9 13.9 239 7.6
2005-02-28 08:26:07 51°14.259 2°53.795 242.8 14 240 7.5
2005-02-28 08:26:13 51°14.247 2°53.763 243.7 14 240 7.5
2005-02-28 08:26:17 51°14.239 2°53.738 244.1 14 240 7.5
2005-02-28 08:26:22 51°14.23 2°53.71 245.4 14 240 5.6
2005-02-28 08:26:27 51°14.222 2°53.685 246 14 240 7.5
2005-02-28 08:26:33 51°14.212 2°53.651 246.7 14.1 245 7.5
2005-02-28 08:26:37 51°14.204 2°53.626 248.2 14.1 245 7.6
2005-02-28 08:26:42 51°14.196 2°53.597 249 14.1 245 7.6
2005-02-28 08:26:47 51°14.19 2°53.571 250.3 14.2 247 7.6
2005-02-28 08:26:52 51°14.181 2°53.54 251.4 14.1 246 7.6
2005-02-28 08:26:57 51°14.173 2°53.511 251.1 14.1 246 7.6
2005-02-28 08:27:03 51°14.164 2°53.48 251.7 14.1 246 7.6
2005-02-28 08:27:07 51°14.157 2°53.457 250.1 14.1 246 7.6
2005-02-28 08:27:13 51°14.146 2°53.424 248.3 14.1 246 7.7
2005-02-28 08:27:18 51°14.136 2°53.397 246 14.1 246 7.7
2005-02-28 08:27:22 51°14.127 2°53.376 243.8 14.1 246 7.8
2005-02-28 08:27:27 51°14.116 2°53.349 241.7 14.1 246 7.7
2005-02-28 08:27:33 51°14.103 2°53.318 240 14.2 236 7.8
2005-02-28 08:27:37 51°14.093 2°53.295 238.8 14.2 236 7.9
2005-02-28 08:27:43 51°14.081 2°53.265 238.7 14.3 237 5.8
2005-02-28 08:27:47 51°14.072 2°53.243 239.2 14.4 236 7.8
2005-02-28 08:27:52 51°14.061 2°53.214 240.4 14.4 239 7.9
2005-02-28 08:27:57 51°14.051 2°53.189 241.6 14.3 238 8
2005-02-28 08:28:03 51°14.04 2°53.156 241.7 14.4 238 7.9
2005-02-28 08:28:07 51°14.031 2°53.13 243.8 14.5 241 8
2005-02-28 08:28:13 51°14.02 2°53.1 244.7 14.3 241 5.9
2005-02-28 08:28:17 51°14.011 2°53.075 244.4 14.6 241 8.1
2005-02-28 08:28:23 51°14 2°53.044 245.4 14.6 242 8
2005-02-28 08:28:27 51°13.991 2°53.018 244.9 14.6 242 8
2005-02-28 08:28:33 51°13.98 2°52.989 243.3 14.6 239 8.1
2005-02-28 08:28:37 51°13.971 2°52.963 243.1 14.6 239 8.2
2005-02-28 08:28:43 51°13.959 2°52.933 243.1 14.5 237 8.2
2005-02-28 08:28:48 51°13.948 2°52.905 241.6 14.5 237 8.2
2005-02-28 08:28:53 51°13.938 2°52.877 242 14.8 238 8.1
2005-02-28 08:28:57 51°13.929 2°52.853 242.4 14.8 238 8.3
2005-02-28 08:29:03 51°13.918 2°52.821 242.8 14.8 238 8.1
2005-02-28 08:29:07 51°13.91 2°52.798 243.3 14.8 238 8
2005-02-28 08:29:13 51°13.898 2°52.764 244.7 14.8 244 8.1
2005-02-28 08:29:17 51°13.89 2°52.737 246.3 14.8 244 8.1
2005-02-28 08:29:21 51°13.883 2°52.714 246.8 14.7 244 8.2
2005-02-28 08:29:27 51°13.872 2°52.683 247.1 14.8 242 8.1
2005-02-28 08:29:33 51°13.86 2°52.648 246.6 14.8 242 8.1
2005-02-28 08:29:37 51°13.852 2°52.622 246.9 14.8 242 8.3
2005-02-28 08:29:43 51°13.84 2°52.591 246.1 14.8 242 8.1
2005-02-28 08:29:47 51°13.83 2°52.566 244.4 14.8 238 8.1
2005-02-28 08:29:53 51°13.819 2°52.535 242.8 14.9 239 8.1
2005-02-28 08:29:57 51°13.81 2°52.51 243.1 14.9 239 8.1
2005-02-28 08:30:01 51°13.801 2°52.488 242.3 14.8 238 8.3
2005-02-28 08:30:07 51°13.788 2°52.454 242.3 14.8 239 8.2
2005-02-28 08:30:13 51°13.776 2°52.424 243.2 14.8 239 8.2
2005-02-28 08:30:17 51°13.768 2°52.398 242.5 14.8 239 8.4
2005-02-28 08:30:23 51°13.757 2°52.367 243.8 14.7 240 8.3
2005-02-28 08:30:27 51°13.748 2°52.341 244.6 14.7 240 8.4
2005-02-28 08:30:32 51°13.738 2°52.312 244.8 14.9 241 8.4
2005-02-28 08:30:37 51°13.728 2°52.283 245.2 14.9 242 8.3
2005-02-28 08:30:43 51°13.718 2°52.251 246.5 14.8 242 8.5
2005-02-28 08:30:47 51°13.709 2°52.225 246.5 14.8 242 8.5
2005-02-28 08:30:53 51°13.698 2°52.194 246.5 14.8 242 8.4
2005-02-28 08:30:57 51°13.689 2°52.168 246.4 14.7 241 8.3
2005-02-28 08:31:02 51°13.681 2°52.144 245.1 14.9 241 8.4
2005-02-28 08:31:07 51°13.67 2°52.114 245.9 14.9 241 8.4
2005-02-28 08:31:13 51°13.658 2°52.079 244.1 14.7 239 8.3
2005-02-28 08:31:17 51°13.648 2°52.055 243.9 14.7 239 8.4
2005-02-28 08:31:21 51°13.64 2°52.032 244.3 14.7 239 8.5
2005-02-28 08:31:28 51°13.627 2°51.998 242.8 14.8 240 8.5
2005-02-28 08:31:33 51°13.616 2°51.968 243.4 14.7 239 8.6
2005-02-28 08:31:37 51°13.606 2°51.942 243 14.8 239 8.5
2005-02-28 08:31:43 51°13.595 2°51.911 243.4 14.8 240 8.6
2005-02-28 08:31:47 51°13.587 2°51.888 243.8 14.8 240 8.6
2005-02-28 08:31:53 51°13.575 2°51.854 244.7 14.8 240 8.5
2005-02-28 08:31:57 51°13.566 2°51.828 244.7 14.8 240 8.4
2005-02-28 08:32:03 51°13.555 2°51.797 245.3 14.8 240 8.5
2005-02-28 08:32:07 51°13.548 2°51.773 246.3 14.8 240 8.5
2005-02-28 08:32:13 51°13.537 2°51.738 246.6 14.7 243 8.5
2005-02-28 08:32:17 51°13.528 2°51.713 246.6 14.7 243 8.6
2005-02-28 08:32:23 51°13.516 2°51.682 246.6 14.7 241 8.5
2005-02-28 08:32:27 51°13.509 2°51.658 245.2 14.7 241 8.5
2005-02-28 08:32:32 51°13.497 2°51.627 244.7 14.8 240 8.6
2005-02-28 08:32:37 51°13.487 2°51.599 244.6 14.8 240 8.6
2005-02-28 08:32:43 51°13.476 2°51.568 243.7 14.8 240 8.6
2005-02-28 08:32:47 51°13.467 2°51.545 243.6 14.8 240 8.6
2005-02-28 08:32:53 51°13.454 2°51.511 243.6 14.9 240 8.7
2005-02-28 08:32:57 51°13.446 2°51.485 243.1 14.9 238 8.6
2005-02-28 08:33:03 51°13.434 2°51.453 243.1 15 241 8.9
2005-02-28 08:33:07 51°13.426 2°51.429 244 15 241 8.7
2005-02-28 08:33:13 51°13.414 2°51.395 244.4 15.1 241 8.7
2005-02-28 08:33:17 51°13.405 2°51.369 245.3 15.1 241 8.7
2005-02-28 08:33:23 51°13.394 2°51.337 244.8 14.9 241 8.6
2005-02-28 08:33:27 51°13.386 2°51.314 244.5 15 240 8.7
2005-02-28 08:33:33 51°13.374 2°51.279 244.7 15 240 8.8
2005-02-28 08:33:37 51°13.365 2°51.253 244.5 15 240 8.7
2005-02-28 08:33:43 51°13.354 2°51.221 244.5 15 240 8.8
2005-02-28 08:33:47 51°13.345 2°51.198 244.5 15 240 8.8
2005-02-28 08:33:53 51°13.333 2°51.163 243.9 15 240 8.8
2005-02-28 08:33:57 51°13.324 2°51.138 244.4 -999 -999 8.7
2005-02-28 08:34:03 51°13.313 2°51.105 243.4 15.2 241 8.8
2005-02-28 08:34:07 51°13.304 2°51.082 244.2 15.2 241 8.8
2005-02-28 08:34:13 51°13.293 2°51.047 244.5 15.1 241 8.8
2005-02-28 08:34:17 51°13.283 2°51.021 244.5 15.1 241 8.7
2005-02-28 08:34:23 51°13.272 2°50.988 244.5 15.1 241 8.8
2005-02-28 08:34:27 51°13.264 2°50.965 245.3 15.1 241 8.9
2005-02-28 08:34:33 51°13.252 2°50.929 244.9 15.1 242 8.8
2005-02-28 08:34:37 51°13.244 2°50.903 245.1 15.2 241 8.8
2005-02-28 08:34:43 51°13.232 2°50.871 245.2 15.1 242 8.8
2005-02-28 08:34:47 51°13.224 2°50.847 244.7 15.1 242 8.9
2005-02-28 08:34:52 51°13.213 2°50.815 244.4 15.2 241 8.8
2005-02-28 08:34:57 51°13.203 2°50.786 244.6 15.2 241 8.9
2005-02-28 08:35:01 51°13.195 2°50.762 244.5 15.1 241 8.9
2005-02-28 08:35:08 51°13.182 2°50.727 244.4 15.1 241 8.7
2005-02-28 08:35:12 51°13.172 2°50.698 244.2 15.2 241 8.8
2005-02-28 08:35:17 51°13.162 2°50.669 245 15.1 241 8.8
2005-02-28 08:35:23 51°13.151 2°50.636 244.8 15.1 241 9
2005-02-28 08:35:28 51°13.142 2°50.61 244.5 15 242 8.9
2005-02-28 08:35:32 51°13.132 2°50.581 245.3 15 242 9
2005-02-28 08:35:37 51°13.122 2°50.552 244.7 15 242 8.8
2005-02-28 08:35:43 51°13.111 2°50.519 244.9 15.1 241 9
2005-02-28 08:35:47 51°13.103 2°50.496 245.2 15 241 8.9
2005-02-28 08:35:53 51°13.091 2°50.461 245.3 15 241 9
2005-02-28 08:35:57 51°13.082 2°50.435 245 15 241 8.9
2005-02-28 08:36:01 51°13.074 2°50.412 244.5 14.9 241 9
2005-02-28 08:36:08 51°13.062 2°50.377 244.4 15 241 9.1
2005-02-28 08:36:13 51°13.051 2°50.345 244.7 15 241 9
2005-02-28 08:36:17 51°13.042 2°50.319 245.3 15 241 9.3
2005-02-28 08:36:23 51°13.031 2°50.287 244.7 15 241 9
2005-02-28 08:36:27 51°13.023 2°50.264 245.6 15 241 9.1
2005-02-28 08:36:33 51°13.011 2°50.229 245 14.9 241 9
2005-02-28 08:36:37 51°13.002 2°50.203 244.5 14.9 241 9
2005-02-28 08:36:42 51°12.993 2°50.177 245.5 14.9 242 9.2
2005-02-28 08:36:47 51°12.984 2°50.148 245.3 14.9 242 9.2
2005-02-28 08:36:53 51°12.972 2°50.113 245.3 14.9 241 9.1
2005-02-28 08:36:57 51°12.963 2°50.087 245.7 14.9 241 9.1
2005-02-28 08:37:03 51°12.953 2°50.054 245.4 15 241 9.1
2005-02-28 08:37:07 51°12.945 2°50.031 246 15 244 9.1
2005-02-28 08:37:13 51°12.933 2°49.996 246.2 14.9 241 9.1
2005-02-28 08:37:17 51°12.924 2°49.97 245.4 14.9 241 9.2
2005-02-28 08:37:21 51°12.917 2°49.947 245.9 14.9 241 9.2
2005-02-28 08:37:28 51°12.904 2°49.912 245 14.9 241 9.3
2005-02-28 08:37:33 51°12.893 2°49.881 244.5 14.9 241 9.2
2005-02-28 08:37:37 51°12.884 2°49.855 244.5 14.8 240 9.2
2005-02-28 08:37:43 51°12.873 2°49.823 243.7 14.9 240 9.6
2005-02-28 08:37:47 51°12.864 2°49.801 243.8 14.9 240 9.3
2005-02-28 08:37:53 51°12.852 2°49.767 243.5 14.9 240 9.2
2005-02-28 08:37:57 51°12.843 2°49.741 243.4 14.9 239 9.4
2005-02-28 08:38:02 51°12.834 2°49.715 243.4 14.9 239 9.3
2005-02-28 08:38:08 51°12.823 2°49.683 244.4 14.9 242 9.4
2005-02-28 08:38:13 51°12.811 2°49.652 244.2 14.9 242 9.3
2005-02-28 08:38:17 51°12.803 2°49.626 244.8 14.9 242 9.2
2005-02-28 08:38:21 51°12.795 2°49.604 244.3 14.8 242 9.3
2005-02-28 08:38:27 51°12.784 2°49.572 244 14.8 242 9.4
2005-02-28 08:38:33 51°12.771 2°49.538 243.8 14.9 241 9.2
2005-02-28 08:38:37 51°12.762 2°49.512 243.7 14.9 241 9.6
2005-02-28 08:38:43 51°12.751 2°49.481 243.7 14.8 241 9.5
2005-02-28 08:38:48 51°12.741 2°49.455 243 14.8 241 9.5
2005-02-28 08:38:52 51°12.731 2°49.427 243.8 14.9 240 9.4
2005-02-28 08:38:57 51°12.721 2°49.399 244.5 14.9 240 9.6
2005-02-28 08:39:03 51°12.71 2°49.367 244.2 14.8 240 9.7
2005-02-28 08:39:07 51°12.702 2°49.344 244 14.8 240 9.6
2005-02-28 08:39:12 51°12.691 2°49.312 245 14.9 241 9.6
2005-02-28 08:39:17 51°12.681 2°49.283 244.8 14.9 241 9.6
2005-02-28 08:39:23 51°12.67 2°49.251 244.8 14.9 241 9.5
2005-02-28 08:39:28 51°12.661 2°49.225 244.4 14.9 241 9.6
2005-02-28 08:39:33 51°12.65 2°49.195 244.3 14.9 241 9.5
2005-02-28 08:39:37 51°12.64 2°49.169 244.1 14.9 240 9.6
2005-02-28 08:39:43 51°12.629 2°49.138 242.7 14.9 240 9.5
2005-02-28 08:39:48 51°12.619 2°49.112 242.4 14.9 240 9.6
2005-02-28 08:39:52 51°12.608 2°49.085 242.4 15 238 9.5
2005-02-28 08:39:57 51°12.597 2°49.057 242.1 15 238 9.5
2005-02-28 08:40:03 51°12.586 2°49.026 242.4 14.8 238 9.7
2005-02-28 08:40:07 51°12.577 2°49.003 242.3 14.8 238 9.7
2005-02-28 08:40:13 51°12.565 2°48.969 242.3 14.9 240 9.7
2005-02-28 08:40:17 51°12.555 2°48.944 243 14.9 240 9.6
2005-02-28 08:40:21 51°12.547 2°48.921 243.2 14.9 239 9.5
2005-02-28 08:40:27 51°12.535 2°48.89 243 14.9 238 9.6
2005-02-28 08:40:33 51°12.522 2°48.856 242.9 14.9 238 9.8
2005-02-28 08:40:37 51°12.513 2°48.831 242.4 14.8 239 9.8
2005-02-28 08:40:42 51°12.502 2°48.803 242 14.8 239 9.7
2005-02-28 08:40:47 51°12.492 2°48.777 241.9 14.8 239 9.8
2005-02-28 08:40:53 51°12.479 2°48.744 242.1 14.8 239 9.8
2005-02-28 08:40:57 51°12.47 2°48.718 241.7 14.8 239 9.8
2005-02-28 08:41:01 51°12.461 2°48.696 243.4 15 238 9.6
2005-02-28 08:41:08 51°12.449 2°48.661 242.4 15 238 9.7
2005-02-28 08:41:12 51°12.438 2°48.633 243.7 14.9 239 9.7
2005-02-28 08:41:17 51°12.428 2°48.604 242.7 15 239 9.9
2005-02-28 08:41:23 51°12.416 2°48.573 243.8 15.1 241 10
2005-02-28 08:41:27 51°12.407 2°48.55 243 15.1 241 9.8
2005-02-28 08:41:32 51°12.395 2°48.519 242.4 15 239 10
2005-02-28 08:41:37 51°12.384 2°48.491 242.4 15 239 9.8
2005-02-28 08:41:43 51°12.373 2°48.459 241.8 15 239 9.9
2005-02-28 08:41:48 51°12.363 2°48.434 242.6 15 239 10
2005-02-28 08:41:53 51°12.351 2°48.403 242.3 15 239 9.9
2005-02-28 08:41:57 51°12.342 2°48.38 242.2 15 239 9.9
2005-02-28 08:42:03 51°12.329 2°48.346 242.4 15 239 9.9
2005-02-28 08:42:07 51°12.321 2°48.324 242.3 15 239 10
2005-02-28 08:42:12 51°12.309 2°48.293 242.3 15 239 9.9
2005-02-28 08:42:17 51°12.299 2°48.264 242.3 15 240 10
2005-02-28 08:42:23 51°12.287 2°48.233 243.1 14.9 239 10
2005-02-28 08:42:28 51°12.278 2°48.207 242.5 14.9 239 10
2005-02-28 08:42:32 51°12.267 2°48.179 242.6 15 239 9.9
2005-02-28 08:42:37 51°12.258 2°48.149 243 15 239 10
2005-02-28 08:42:42 51°12.25 2°48.122 246.4 15 239 10.1
2005-02-28 08:42:47 51°12.242 2°48.092 248.2 14.9 246 10.1
2005-02-28 08:42:53 51°12.233 2°48.056 250.7 14.9 247 10
2005-02-28 08:42:57 51°12.226 2°48.028 251.8 14.9 247 10.1
2005-02-28 08:43:03 51°12.218 2°47.995 252.5 14.9 247 10.2
2005-02-28 08:43:08 51°12.211 2°47.967 253.3 14.9 247 10.2
2005-02-28 08:43:13 51°12.203 2°47.934 253.3 14.9 249 10.2
2005-02-28 08:43:17 51°12.197 2°47.906 254 14.9 249 10.2
2005-02-28 08:43:21 51°12.191 2°47.881 253.5 14.9 249 10.3
2005-02-28 08:43:28 51°12.182 2°47.844 253.4 14.9 249 10.3
2005-02-28 08:43:33 51°12.174 2°47.811 253.7 14.9 249 10.3
2005-02-28 08:43:37 51°12.167 2°47.783 253.5 14.9 249 10.3
2005-02-28 08:43:43 51°12.159 2°47.749 253.5 14.9 249 10.2
2005-02-28 08:43:48 51°12.152 2°47.721 253.8 14.9 249 10.2
2005-02-28 08:43:52 51°12.144 2°47.691 253.3 14.9 249 10.2
2005-02-28 08:43:57 51°12.137 2°47.66 253.2 14.9 249 10.3
2005-02-28 08:44:01 51°12.131 2°47.636 252.5 15 248 10.4
2005-02-28 08:44:08 51°12.121 2°47.598 252.8 15 249 10.3
2005-02-28 08:44:13 51°12.114 2°47.564 252.9 15 249 10.3
2005-02-28 08:44:17 51°12.107 2°47.537 253 15 249 10.3
2005-02-28 08:44:23 51°12.098 2°47.503 253.4 15 249 10.3
2005-02-28 08:44:27 51°12.092 2°47.478 252.7 15 249 10.3
2005-02-28 08:44:33 51°12.083 2°47.442 253.3 14.9 249 10.4
2005-02-28 08:44:37 51°12.076 2°47.414 252.6 14.9 249 10.4
2005-02-28 08:44:42 51°12.069 2°47.386 252.4 15 249 10.4
2005-02-28 08:44:47 51°12.062 2°47.355 252.5 15 249 10.4
2005-02-28 08:44:53 51°12.053 2°47.318 252.6 15.1 248 10.4
2005-02-28 08:44:57 51°12.046 2°47.29 252.8 15.1 248 10.4
2005-02-28 08:45:02 51°12.038 2°47.26 253.4 14.9 249 10.5
2005-02-28 08:45:07 51°12.032 2°47.231 252.9 15 249 10.4
2005-02-28 08:45:13 51°12.023 2°47.195 253.3 15 248 10.5
2005-02-28 08:45:17 51°12.016 2°47.167 252.9 15 248 10.5
2005-02-28 08:45:21 51°12.01 2°47.142 252.9 15 248 10.6
2005-02-28 08:45:28 51°12 2°47.105 252.9 15 249 10.5
2005-02-28 08:45:33 51°11.993 2°47.071 252.9 15 250 10.6
2005-02-28 08:45:37 51°11.985 2°47.043 253 15 247 10.5
2005-02-28 08:45:42 51°11.979 2°47.015 252.5 15 249 10.6
2005-02-28 08:45:47 51°11.971 2°46.986 252.5 14.9 246 10.5
2005-02-28 08:45:53 51°11.962 2°46.948 251.6 15 250 10.5
2005-02-28 08:45:57 51°11.955 2°46.921 252.7 15 250 10.5
2005-02-28 08:46:01 51°11.949 2°46.896 252.5 14.9 249 10.5
2005-02-28 08:46:07 51°11.941 2°46.862 252.6 14.9 249 10.5
2005-02-28 08:46:12 51°11.932 2°46.828 252 15 249 10.6
2005-02-28 08:46:17 51°11.924 2°46.798 252.7 14.9 247 10.5
2005-02-28 08:46:23 51°11.916 2°46.764 251.6 14.9 247 10.5
2005-02-28 08:46:28 51°11.909 2°46.735 252 14.9 247 10.5
2005-02-28 08:46:32 51°11.901 2°46.706 252.4 14.9 247 10.6
2005-02-28 08:46:37 51°11.893 2°46.675 251.8 14.9 248 10.6
2005-02-28 08:46:43 51°11.885 2°46.641 251.8 15 249 10.6
2005-02-28 08:46:47 51°11.879 2°46.616 252.6 15 249 10.6
2005-02-28 08:46:53 51°11.87 2°46.578 251.8 15.1 247 10.6
2005-02-28 08:46:57 51°11.862 2°46.551 252.5 15.1 249 10.7
2005-02-28 08:47:02 51°11.856 2°46.523 252.8 15 248 10.6
2005-02-28 08:47:08 51°11.847 2°46.488 252 15.1 248 10.6
2005-02-28 08:47:13 51°11.839 2°46.455 252.5 15.1 249 10.6
2005-02-28 08:47:17 51°11.832 2°46.427 252.7 15.1 249 10.6
2005-02-28 08:47:23 51°11.824 2°46.393 252.6 15.2 250 10.6
2005-02-28 08:47:27 51°11.818 2°46.368 253 15.2 250 10.6
2005-02-28 08:47:33 51°11.809 2°46.33 253.1 15 250 10.6
2005-02-28 08:47:37 51°11.802 2°46.302 252.3 15.2 249 10.6
2005-02-28 08:47:42 51°11.795 2°46.274 253.1 15.1 248 10.6
2005-02-28 08:47:48 51°11.787 2°46.239 252.4 15.1 248 10.6
2005-02-28 08:47:53 51°11.779 2°46.206 252.5 15.1 248 10.6
2005-02-28 08:47:57 51°11.771 2°46.178 252.5 15.1 248 10.6
2005-02-28 08:48:03 51°11.763 2°46.143 252.2 15.1 247 10.5
2005-02-28 08:48:08 51°11.756 2°46.116 251.8 15.1 247 10.5
2005-02-28 08:48:13 51°11.748 2°46.082 252 15.1 247 10.6
2005-02-28 08:48:18 51°11.739 2°46.051 251.6 15.1 247 10.6
2005-02-28 08:48:22 51°11.733 2°46.026 251.9 15 249 10.6
2005-02-28 08:48:27 51°11.725 2°45.996 252.5 15 249 10.5
2005-02-28 08:48:33 51°11.716 2°45.958 251.1 15 247 10.5
2005-02-28 08:48:37 51°11.709 2°45.93 252 15.2 249 10.5
2005-02-28 08:48:42 51°11.703 2°45.902 252.5 15.3 248 10.5
2005-02-28 08:48:47 51°11.694 2°45.872 253.3 15.3 248 10.6
2005-02-28 08:48:53 51°11.686 2°45.834 252.4 15 248 10.6
2005-02-28 08:48:57 51°11.678 2°45.806 252.1 15 248 10.6
2005-02-28 08:49:03 51°11.67 2°45.771 251.9 15.3 248 10.6
2005-02-28 08:49:07 51°11.664 2°45.746 252.7 15.3 248 10.6
2005-02-28 08:49:13 51°11.655 2°45.709 252.3 15.2 248 10.6
2005-02-28 08:49:17 51°11.648 2°45.681 252.2 15 249 10.6
2005-02-28 08:49:21 51°11.641 2°45.656 252.5 15 249 10.5
2005-02-28 08:49:28 51°11.632 2°45.618 252 15.2 248 10.5
2005-02-28 08:49:33 51°11.624 2°45.585 252 15.3 249 10.6
2005-02-28 08:49:37 51°11.617 2°45.557 252.2 15.3 249 10.6
2005-02-28 08:49:41 51°11.61 2°45.532 252.5 15.3 249 10.5
2005-02-28 08:49:48 51°11.601 2°45.494 251.8 15.2 249 10.5
2005-02-28 08:49:52 51°11.593 2°45.464 252.3 15.2 249 10.5
2005-02-28 08:49:57 51°11.585 2°45.433 251.7 15.2 249 10.5
2005-02-28 08:50:02 51°11.578 2°45.405 251.8 15.1 248 10.5
2005-02-28 08:50:07 51°11.569 2°45.374 251.2 15.1 248 10.4
2005-02-28 08:50:13 51°11.56 2°45.337 250.3 15.3 246 10.5
2005-02-28 08:50:17 51°11.553 2°45.31 251.2 15.3 246 10.5
2005-02-28 08:50:21 51°11.546 2°45.285 250.3 15 248 10.5
2005-02-28 08:50:27 51°11.537 2°45.251 250.4 15 248 10.5
2005-02-28 08:50:32 51°11.528 2°45.218 251.2 15.1 248 10.5
2005-02-28 08:50:37 51°11.52 2°45.187 250.7 15.1 248 10.4
2005-02-28 08:50:43 51°11.511 2°45.153 251.1 15.1 248 10.4
2005-02-28 08:50:47 51°11.505 2°45.129 251.1 15 247 10.5
2005-02-28 08:50:53 51°11.495 2°45.092 250.6 15 247 10.4
2005-02-28 08:50:57 51°11.489 2°45.064 251.1 15 247 10.4
2005-02-28 08:51:02 51°11.481 2°45.037 251.4 15 248 10.4
2005-02-28 08:51:07 51°11.474 2°45.006 251.4 15 248 10.4
2005-02-28 08:51:13 51°11.464 2°44.97 251.5 15 249 10.4
2005-02-28 08:51:17 51°11.457 2°44.942 251.3 15 249 10.4
2005-02-28 08:51:21 51°11.451 2°44.918 251.6 14.9 248 10.3
2005-02-28 08:51:27 51°11.442 2°44.884 251.4 14.9 248 10.4
2005-02-28 08:51:33 51°11.433 2°44.847 251.1 15.1 248 10.4
2005-02-28 08:51:37 51°11.426 2°44.82 251.5 15.1 248 10.4
2005-02-28 08:51:42 51°11.419 2°44.792 251.8 15.1 248 10.4
2005-02-28 08:51:48 51°11.411 2°44.757 251.6 15 248 10.4
2005-02-28 08:51:53 51°11.403 2°44.724 252 15 248 10.4
2005-02-28 08:51:58 51°11.395 2°44.693 252.4 15 248 10.5
2005-02-28 08:52:03 51°11.387 2°44.663 252 15 248 10.5
2005-02-28 08:52:07 51°11.381 2°44.638 251.9 14.9 248 10.5
2005-02-28 08:52:13 51°11.372 2°44.602 251.5 14.9 248 10.4
2005-02-28 08:52:17 51°11.365 2°44.575 251 14.9 248 10.4
2005-02-28 08:52:23 51°11.355 2°44.542 250.6 14.9 248 10.4
2005-02-28 08:52:27 51°11.349 2°44.517 250.1 14.9 247 10.4
2005-02-28 08:52:33 51°11.34 2°44.481 250.6 14.9 247 10.4
2005-02-28 08:52:37 51°11.333 2°44.454 251.1 14.9 247 10.4
2005-02-28 08:52:43 51°11.324 2°44.42 251.1 14.9 247 10.4
2005-02-28 08:52:48 51°11.317 2°44.393 251.7 14.8 248 10.4
2005-02-28 08:52:52 51°11.31 2°44.363 251.1 14.8 249 10.5
2005-02-28 08:52:57 51°11.302 2°44.333 251.3 14.8 249 10.4
2005-02-28 08:53:03 51°11.293 2°44.299 251.5 14.8 248 10.4
2005-02-28 08:53:07 51°11.288 2°44.274 251.1 15 247 10.3
2005-02-28 08:53:12 51°11.279 2°44.241 251.6 14.9 249 10.3
2005-02-28 08:53:17 51°11.271 2°44.211 252.1 14.7 248 10.3
2005-02-28 08:53:23 51°11.264 2°44.177 251.4 14.9 249 10.4
2005-02-28 08:53:27 51°11.257 2°44.153 252.3 14.9 249 10.3
2005-02-28 08:53:32 51°11.249 2°44.119 251.8 14.9 249 10.3
2005-02-28 08:53:37 51°11.241 2°44.088 252.3 14.9 248 10.3
2005-02-28 08:53:42 51°11.233 2°44.058 251.8 14.9 248 10.4
2005-02-28 08:53:47 51°11.227 2°44.03 251.7 14.9 249 10.4
2005-02-28 08:53:53 51°11.217 2°43.994 251.8 14.9 248 10.4
2005-02-28 08:53:57 51°11.21 2°43.967 251.7 14.7 247 10.4
2005-02-28 08:54:02 51°11.203 2°43.939 250.5 14.9 247 10.3
2005-02-28 08:54:08 51°11.194 2°43.902 250.8 14.9 247 10.3
2005-02-28 08:54:12 51°11.187 2°43.875 251.7 14.9 248 10.4
2005-02-28 08:54:17 51°11.179 2°43.845 251.8 14.8 248 10.4
2005-02-28 08:54:23 51°11.17 2°43.811 251.1 14.8 248 10.3
2005-02-28 08:54:28 51°11.163 2°43.783 250.4 14.8 248 10.3
2005-02-28 08:54:33 51°11.155 2°43.749 251.2 14.8 248 10.3
2005-02-28 08:54:37 51°11.148 2°43.722 251.6 14.8 248 10.4
2005-02-28 08:54:43 51°11.139 2°43.688 251.7 15 248 10.3
2005-02-28 08:54:47 51°11.133 2°43.664 251.5 14.9 247 10.3
2005-02-28 08:54:53 51°11.123 2°43.628 251 14.9 248 10.2
2005-02-28 08:54:57 51°11.116 2°43.6 250.1 15 247 10.3
2005-02-28 08:55:03 51°11.107 2°43.565 250.1 15 247 10.2
2005-02-28 08:55:07 51°11.101 2°43.541 251 15 247 10.2
2005-02-28 08:55:13 51°11.092 2°43.504 251.4 15 248 10.2
2005-02-28 08:55:17 51°11.085 2°43.477 252 15 248 10.3
2005-02-28 08:55:23 51°11.076 2°43.442 251.9 15 248 10.1
2005-02-28 08:55:27 51°11.07 2°43.418 251.2 15 248 10.2
2005-02-28 08:55:33 51°11.061 2°43.38 251.7 15.2 249 10.2
2005-02-28 08:55:37 51°11.054 2°43.353 251.7 15.2 249 10.2
2005-02-28 08:55:43 51°11.045 2°43.319 251.6 15.1 248 10.2
2005-02-28 08:55:47 51°11.039 2°43.294 251.6 15.1 248 10.2
2005-02-28 08:55:53 51°11.03 2°43.257 250.8 15.1 247 10.3
2005-02-28 08:55:57 51°11.023 2°43.229 251.2 15.2 249 10.2
2005-02-28 08:56:02 51°11.015 2°43.198 251.7 15.2 248 10.2
2005-02-28 08:56:07 51°11.009 2°43.17 251.8 15.1 249 10.2
2005-02-28 08:56:12 51°10.999 2°43.136 252.5 15.1 248 10.1
2005-02-28 08:56:17 51°10.993 2°43.104 250.9 15.1 248 10.2
2005-02-28 08:56:22 51°10.984 2°43.073 252.8 15.1 247 10.1
2005-02-28 08:56:27 51°10.978 2°43.045 251.6 15 250 10.2
2005-02-28 08:56:33 51°10.969 2°43.008 252 15 250 10.2
2005-02-28 08:56:37 51°10.962 2°42.981 251.4 15 250 10.3
2005-02-28 08:56:43 51°10.953 2°42.947 251 15 250 10.1
2005-02-28 08:56:48 51°10.946 2°42.918 250.4 15.3 249 10.1
2005-02-28 08:56:53 51°10.938 2°42.884 250.9 15.3 249 10.2
2005-02-28 08:56:57 51°10.931 2°42.856 252.1 15.3 249 10.3
2005-02-28 08:57:01 51°10.924 2°42.832 252.5 15.3 249 10.2
2005-02-28 08:57:08 51°10.915 2°42.795 251.8 15.3 249 10.2
2005-02-28 08:57:13 51°10.907 2°42.762 250.7 15.3 249 10.1
2005-02-28 08:57:17 51°10.899 2°42.734 250.7 -999 -999 10.1
2005-02-28 08:57:23 51°10.891 2°42.7 250.3 15.2 247 10.2
2005-02-28 08:57:27 51°10.885 2°42.675 251.1 15.2 247 10.2
2005-02-28 08:57:33 51°10.876 2°42.639 252 14.7 250 10.2
2005-02-28 08:57:37 51°10.869 2°42.612 252.4 14.7 250 10.1
2005-02-28 08:57:43 51°10.861 2°42.578 251.5 14.8 249 10.1
2005-02-28 08:57:48 51°10.854 2°42.55 252 14.9 247 10.1
2005-02-28 08:57:53 51°10.845 2°42.517 251.2 14.9 247 10
2005-02-28 08:57:57 51°10.839 2°42.493 251.4 14.9 247 10.1
2005-02-28 08:58:03 51°10.83 2°42.457 251.7 14.7 249 10.1
2005-02-28 08:58:08 51°10.823 2°42.429 250.8 14.8 248 10.1
2005-02-28 08:58:13 51°10.815 2°42.396 251 14.9 249 10.1
2005-02-28 08:58:17 51°10.808 2°42.369 251.8 14.9 249 10
2005-02-28 08:58:23 51°10.8 2°42.335 251.6 14.9 249 10
2005-02-28 08:58:27 51°10.794 2°42.311 251.9 14.8 249 10.1
2005-02-28 08:58:33 51°10.785 2°42.275 252.1 14.7 248 10
2005-02-28 08:58:37 51°10.778 2°42.248 250.5 14.7 248 10.1
2005-02-28 08:58:43 51°10.771 2°42.214 250.5 14.7 248 10
2005-02-28 08:58:47 51°10.767 2°42.188 253 14.9 255 10
2005-02-28 08:58:53 51°10.761 2°42.15 257.2 14.9 255 10.1
2005-02-28 08:58:57 51°10.758 2°42.122 260.3 14.9 255 10.1
2005-02-28 08:59:02 51°10.754 2°42.093 262.4 14.9 255 10
2005-02-28 08:59:07 51°10.751 2°42.06 264.1 14.9 255 10.2
2005-02-28 08:59:13 51°10.748 2°42.021 265 14.9 261 10.2
2005-02-28 08:59:17 51°10.745 2°41.992 265.8 14.8 262 10.2
2005-02-28 08:59:23 51°10.741 2°41.957 266.3 14.8 260 10.2
2005-02-28 08:59:27 51°10.738 2°41.931 265.5 14.9 261 10.1
2005-02-28 08:59:33 51°10.734 2°41.891 265.4 14.9 261 10.1
2005-02-28 08:59:38 51°10.731 2°41.859 265 14.9 261 10.2
2005-02-28 08:59:43 51°10.728 2°41.826 265.4 15 261 10.2
2005-02-28 08:59:47 51°10.725 2°41.8 265.6 15 261 10.3
2005-02-28 08:59:52 51°10.722 2°41.764 265.1 14.9 260 10.3
2005-02-28 08:59:58 51°10.718 2°41.728 265 14.9 260 10.2
2005-02-28 09:00:01 51°10.716 2°41.705 264.5 15.1 260 10.2
2005-02-28 09:00:08 51°10.711 2°41.665 265.3 15.1 260 10.2
2005-02-28 09:00:12 51°10.708 2°41.633 265.4 15 262 10.3
2005-02-28 09:00:18 51°10.705 2°41.596 265.4 15 262 10.3
2005-02-28 09:00:23 51°10.701 2°41.564 265.3 15 260 10.3
2005-02-28 09:00:27 51°10.698 2°41.538 265 15.1 260 10.3
2005-02-28 09:00:33 51°10.693 2°41.499 264.6 15.1 260 10.3
2005-02-28 09:00:37 51°10.69 2°41.469 263.8 15.1 259 10.3
2005-02-28 09:00:43 51°10.685 2°41.433 263.2 15.1 259 10.3
2005-02-28 09:00:48 51°10.681 2°41.401 262.8 15.1 259 10.4
2005-02-28 09:00:52 51°10.677 2°41.371 262.4 15 258 10.4
2005-02-28 09:00:57 51°10.673 2°41.342 261.8 15 258 10.3
2005-02-28 09:01:01 51°10.669 2°41.313 261.7 15 258 10.4
2005-02-28 09:01:08 51°10.663 2°41.27 261.6 15.1 258 10.3
2005-02-28 09:01:12 51°10.659 2°41.241 261.9 15.1 258 10.3
2005-02-28 09:01:17 51°10.655 2°41.208 262 15.2 259 10.3
2005-02-28 09:01:23 51°10.65 2°41.173 262 15.2 259 10.4
2005-02-28 09:01:28 51°10.645 2°41.14 262 15.2 259 10.4
2005-02-28 09:01:33 51°10.641 2°41.108 261.1 15.2 259 10.4
2005-02-28 09:01:37 51°10.637 2°41.079 261 15.2 259 10.4
2005-02-28 09:01:42 51°10.632 2°41.046 260.6 15.2 256 10.2
2005-02-28 09:01:47 51°10.628 2°41.016 260.3 15.2 256 10.4
2005-02-28 09:01:53 51°10.623 2°40.978 261 15.2 256 10.5
2005-02-28 09:01:57 51°10.619 2°40.948 261.2 15.2 256 10.4
2005-02-28 09:02:03 51°10.614 2°40.912 262 15.2 256 10.4
2005-02-28 09:02:07 51°10.611 2°40.886 262.1 15.1 258 10.5
2005-02-28 09:02:13 51°10.605 2°40.847 262 15.1 258 10.4
2005-02-28 09:02:17 51°10.601 2°40.818 261.9 15.2 258 10.4
2005-02-28 09:02:23 51°10.596 2°40.782 261.6 15.2 258 10.5
2005-02-28 09:02:27 51°10.592 2°40.756 261.3 15.2 258 10.6
2005-02-28 09:02:33 51°10.587 2°40.716 261.5 15.1 258 10.6
2005-02-28 09:02:37 51°10.583 2°40.691 261.3 15.1 258 10.6
2005-02-28 09:02:43 51°10.578 2°40.652 260.9 15.1 257 10.6
2005-02-28 09:02:48 51°10.573 2°40.622 261.1 15.1 256 10.7
2005-02-28 09:02:53 51°10.569 2°40.587 260.5 15.1 256 10.7
2005-02-28 09:02:57 51°10.564 2°40.56 261 15.1 256 10.7
2005-02-28 09:03:02 51°10.56 2°40.531 260.8 13.8 258 10.8
2005-02-28 09:03:07 51°10.557 2°40.506 261.2 13.8 258 10.9
2005-02-28 09:03:13 51°10.552 2°40.476 260.7 12.7 257 11
2005-02-28 09:03:18 51°10.548 2°40.452 260 12.7 257 11.2
2005-02-28 09:03:22 51°10.543 2°40.433 257.7 12.7 257 11.3
2005-02-28 09:03:28 51°10.538 2°40.41 255.6 12.7 257 11.3
2005-02-28 09:03:33 51°10.533 2°40.391 252.5 9.4 248 11.4
2005-02-28 09:03:37 51°10.529 2°40.377 249.6 9 246 11.4
2005-02-28 09:03:42 51°10.523 2°40.359 246.4 8.4 245 11.4
2005-02-28 09:03:48 51°10.517 2°40.343 244.7 8.4 245 11.4
2005-02-28 09:03:53 51°10.513 2°40.328 242.3 7.6 243 11.5
2005-02-28 09:03:57 51°10.508 2°40.316 241.6 7.4 242 11.5
2005-02-28 09:04:03 51°10.502 2°40.301 239.5 7 241 11.5
2005-02-28 09:04:07 51°10.499 2°40.291 238 7 241 11.5
2005-02-28 09:04:12 51°10.493 2°40.278 236.6 7 241 11.5
2005-02-28 09:04:18 51°10.488 2°40.265 235.2 7 241 11.5
2005-02-28 09:04:22 51°10.484 2°40.256 233.6 6.2 236 11.5
2005-02-28 09:04:27 51°10.479 2°40.246 232.2 6.2 236 11.5
2005-02-28 09:04:32 51°10.474 2°40.235 231.2 5.8 235 11.6
2005-02-28 09:04:37 51°10.47 2°40.226 230.2 5.8 235 11.4
2005-02-28 09:04:43 51°10.465 2°40.215 229.5 5.8 235 11.5
2005-02-28 09:04:47 51°10.461 2°40.208 229.6 5.1 230 11.5
2005-02-28 09:04:52 51°10.457 2°40.197 228.7 5.1 236 11.5
2005-02-28 09:04:57 51°10.453 2°40.189 228.9 5.1 236 11.5
2005-02-28 09:05:03 51°10.449 2°40.179 228.5 5.1 236 11.5
2005-02-28 09:05:07 51°10.446 2°40.17 229.8 5.1 236 11.6
2005-02-28 09:05:13 51°10.441 2°40.158 232.8 5.1 236 11.5
2005-02-28 09:05:17 51°10.437 2°40.148 235.6 5.1 236 11.5
2005-02-28 09:05:23 51°10.434 2°40.135 241.6 5.1 236 11.5
2005-02-28 09:05:27 51°10.431 2°40.124 246.9 6.2 248 11.5
2005-02-28 09:05:33 51°10.428 2°40.107 251.1 6.4 250 11.5
2005-02-28 09:05:37 51°10.425 2°40.094 253.7 6.4 250 11.6
2005-02-28 09:05:43 51°10.421 2°40.075 255.5 7.5 254 11.6
2005-02-28 09:05:47 51°10.419 2°40.061 256.7 7.5 254 11.5
2005-02-28 09:05:53 51°10.415 2°40.037 257.9 8.6 255 11.5
2005-02-28 09:05:57 51°10.412 2°40.018 259 8.6 255 11.5
2005-02-28 09:06:02 51°10.408 2°39.998 259.7 8.6 255 11.5
2005-02-28 09:06:07 51°10.405 2°39.975 259.8 8.6 255 11.6
2005-02-28 09:06:13 51°10.4 2°39.946 260.5 11.2 255 11.5
2005-02-28 09:06:17 51°10.398 2°39.923 260.3 11.5 258 11.5
2005-02-28 09:06:23 51°10.393 2°39.895 260.5 12.1 255 11.6
2005-02-28 09:06:27 51°10.39 2°39.873 260.1 12.3 257 11.6
2005-02-28 09:06:33 51°10.385 2°39.839 260.1 12.8 255 11.7
2005-02-28 09:06:38 51°10.38 2°39.81 260.1 12.8 255 11.7
2005-02-28 09:06:43 51°10.375 2°39.782 259.9 13.3 256 11.7
2005-02-28 09:06:47 51°10.372 2°39.758 260 13.3 256 11.7
2005-02-28 09:06:52 51°10.367 2°39.725 259.8 13.9 256 11.7
2005-02-28 09:06:57 51°10.362 2°39.695 259.8 13.9 256 11.8
2005-02-28 09:07:03 51°10.357 2°39.661 260.3 14.1 257 11.9
2005-02-28 09:07:08 51°10.353 2°39.633 260.2 14.2 256 12
2005-02-28 09:07:13 51°10.348 2°39.6 260.3 14.2 256 12
2005-02-28 09:07:17 51°10.344 2°39.573 260.3 14.2 256 12.1
2005-02-28 09:07:23 51°10.339 2°39.539 260.5 14.3 256 12.2
2005-02-28 09:07:28 51°10.335 2°39.508 260.4 14.3 256 12.3
2005-02-28 09:07:33 51°10.33 2°39.478 260.6 14.2 257 12.3
2005-02-28 09:07:37 51°10.326 2°39.453 260.9 14.2 257 12.4
2005-02-28 09:07:43 51°10.321 2°39.417 260.4 14.2 256 12.5
2005-02-28 09:07:47 51°10.317 2°39.392 260 14.2 257 12.6
2005-02-28 09:07:53 51°10.312 2°39.355 260.5 14.2 257 12.7
2005-02-28 09:07:57 51°10.308 2°39.331 260.5 14.3 258 12.8
2005-02-28 09:08:03 51°10.303 2°39.294 260.2 14.3 258 12.8
2005-02-28 09:08:08 51°10.299 2°39.266 260.1 14.3 257 12.8
2005-02-28 09:08:13 51°10.293 2°39.232 260.7 14.3 257 12.7
2005-02-28 09:08:17 51°10.289 2°39.205 260.1 14.3 257 12.7
2005-02-28 09:08:22 51°10.284 2°39.174 259.8 14.3 256 13
2005-02-28 09:08:27 51°10.28 2°39.147 259.4 14.3 256 13.1
2005-02-28 09:08:33 51°10.275 2°39.109 259.5 14.3 256 13
2005-02-28 09:08:37 51°10.27 2°39.082 259.8 14.3 256 13.2
2005-02-28 09:08:43 51°10.265 2°39.048 259.8 14.3 256 13.1
2005-02-28 09:08:47 51°10.262 2°39.023 260.6 14.3 256 13.3
2005-02-28 09:08:52 51°10.257 2°38.995 260.6 14.4 257 13
2005-02-28 09:08:57 51°10.252 2°38.958 260.5 14.4 257 13.1
2005-02-28 09:09:03 51°10.247 2°38.923 260.9 14.4 257 13.2
2005-02-28 09:09:07 51°10.243 2°38.899 260.5 14.4 257 13.3
2005-02-28 09:09:13 51°10.238 2°38.862 260.7 14.4 257 13.2
2005-02-28 09:09:17 51°10.235 2°38.834 261.1 14.4 257 13.2
2005-02-28 09:09:23 51°10.23 2°38.8 261.2 14.2 256 13.2
2005-02-28 09:09:27 51°10.226 2°38.776 260.5 14.2 258 13.2
2005-02-28 09:09:33 51°10.221 2°38.739 260.8 14.2 257 13.5
2005-02-28 09:09:37 51°10.217 2°38.712 260.9 14.2 257 13.6
2005-02-28 09:09:43 51°10.212 2°38.678 261.2 14.1 258 13.8
2005-02-28 09:09:47 51°10.209 2°38.654 260.7 14.1 257 13.7
2005-02-28 09:09:53 51°10.203 2°38.617 261.2 14.2 255 13.8
2005-02-28 09:09:57 51°10.199 2°38.59 260.3 14.3 258 13.5
2005-02-28 09:10:01 51°10.196 2°38.568 260.9 14.3 258 13.9
2005-02-28 09:10:08 51°10.19 2°38.528 260.7 14.3 257 13.4
2005-02-28 09:10:13 51°10.185 2°38.494 260.2 14.3 256 13.4
2005-02-28 09:10:17 51°10.181 2°38.467 260.5 14.4 257 14
2005-02-28 09:10:21 51°10.178 2°38.445 260.7 14.4 257 14
2005-02-28 09:10:27 51°10.172 2°38.408 260.1 14.4 257 14.1
2005-02-28 09:10:33 51°10.166 2°38.37 260.7 14.4 258 14
2005-02-28 09:10:37 51°10.162 2°38.342 260.5 14.6 255 13.7
2005-02-28 09:10:41 51°10.159 2°38.317 260.5 14.5 258 13.6
2005-02-28 09:10:47 51°10.154 2°38.283 261.3 14.5 258 13.8
2005-02-28 09:10:53 51°10.148 2°38.246 261.1 14.4 258 13.9
2005-02-28 09:10:58 51°10.145 2°38.215 261.3 14.4 258 13.9
2005-02-28 09:11:01 51°10.141 2°38.193 261.3 14.5 257 14.2
2005-02-28 09:11:07 51°10.136 2°38.158 261 14.5 257 14.3
2005-02-28 09:11:12 51°10.132 2°38.124 261.4 14.5 257 14.6
2005-02-28 09:11:17 51°10.128 2°38.093 261.4 14.5 257 14.5
2005-02-28 09:11:23 51°10.123 2°38.058 261.6 14.5 257 14.6
2005-02-28 09:11:28 51°10.119 2°38.027 261.8 14.6 258 14.5
2005-02-28 09:11:32 51°10.116 2°37.998 261.9 14.5 259 14.6
2005-02-28 09:11:37 51°10.112 2°37.97 262.2 14.5 258 14.1
2005-02-28 09:11:43 51°10.107 2°37.933 262.4 14.5 259 14.8
2005-02-28 09:11:48 51°10.103 2°37.904 261.9 14.5 258 14.7
2005-02-28 09:11:53 51°10.099 2°37.87 261.8 14.4 258 14.8
2005-02-28 09:11:57 51°10.095 2°37.842 261.3 14.4 258 14.8
2005-02-28 09:12:03 51°10.09 2°37.808 261.5 14.5 259 14.9
2005-02-28 09:12:08 51°10.086 2°37.779 261.5 14.5 257 14.9
2005-02-28 09:12:12 51°10.082 2°37.748 260.9 14.6 258 15
2005-02-28 09:12:17 51°10.078 2°37.717 261.7 14.6 258 14.9
2005-02-28 09:12:22 51°10.074 2°37.688 261.6 14.6 258 15.1
2005-02-28 09:12:28 51°10.068 2°37.65 261.7 14.5 257 15.1
2005-02-28 09:12:33 51°10.065 2°37.619 260.7 14.5 257 15.2
2005-02-28 09:12:38 51°10.06 2°37.589 261.2 14.5 257 15.3
2005-02-28 09:12:43 51°10.056 2°37.557 261.2 14.5 256 15.2
2005-02-28 09:12:47 51°10.052 2°37.532 260.8 14.6 259 15.3
2005-02-28 09:12:53 51°10.047 2°37.494 261.4 14.6 259 15.2
2005-02-28 09:12:58 51°10.043 2°37.462 261.3 14.6 257 15.3
2005-02-28 09:13:03 51°10.039 2°37.431 260.5 14.6 257 15.5
2005-02-28 09:13:08 51°10.034 2°37.403 260.9 14.6 257 15.4
2005-02-28 09:13:13 51°10.03 2°37.369 261 14.5 257 15.5
2005-02-28 09:13:17 51°10.026 2°37.34 261.2 14.5 257 15.3
2005-02-28 09:13:22 51°10.022 2°37.311 260.6 14.7 258 15.3
2005-02-28 09:13:27 51°10.017 2°37.28 261.2 14.7 258 15.3
2005-02-28 09:13:32 51°10.013 2°37.246 261.1 14.5 258 15.6
2005-02-28 09:13:38 51°10.008 2°37.211 260.8 14.5 258 15.4
2005-02-28 09:13:43 51°10.005 2°37.179 260.9 14.6 257 15.5
2005-02-28 09:13:47 51°10.001 2°37.154 263 14.7 261 15.5
2005-02-28 09:13:53 51°9.998 2°37.115 263.6 14.6 261 15.6
2005-02-28 09:13:58 51°9.995 2°37.083 264.9 14.6 261 15.6
2005-02-28 09:14:03 51°9.992 2°37.051 265.4 14.6 261 15.6
2005-02-28 09:14:08 51°9.99 2°37.022 265.6 14.7 262 15.7
2005-02-28 09:14:13 51°9.988 2°36.987 266.1 14.7 262 15.9
2005-02-28 09:14:17 51°9.984 2°36.958 266.8 14.7 262 15.4
2005-02-28 09:14:23 51°9.982 2°36.923 266 14.6 261 15.6
2005-02-28 09:14:28 51°9.978 2°36.891 265.9 14.6 261 15.6
2005-02-28 09:14:32 51°9.976 2°36.862 265.4 14.6 262 15.5
2005-02-28 09:14:38 51°9.972 2°36.827 265.3 14.6 261 15.8
2005-02-28 09:14:41 51°9.97 2°36.805 264.8 14.6 261 15.8
2005-02-28 09:14:48 51°9.966 2°36.766 264.6 14.7 262 15.9
2005-02-28 09:14:53 51°9.966 2°36.731 266.2 14.6 266 15.9
2005-02-28 09:14:57 51°9.965 2°36.702 269.9 14.6 266 16
2005-02-28 09:15:02 51°9.965 2°36.67 272.3 14.6 268 15.7
2005-02-28 09:15:07 51°9.966 2°36.641 275.3 14.6 271 15.6
2005-02-28 09:15:13 51°9.968 2°36.602 277.1 14.6 271 15.8
2005-02-28 09:15:17 51°9.969 2°36.574 278.9 14.5 274 15.8
2005-02-28 09:15:21 51°9.97 2°36.548 279.6 14.5 274 15.6
2005-02-28 09:15:27 51°9.972 2°36.512 279.8 14.5 274 15.8
2005-02-28 09:15:33 51°9.974 2°36.474 280.1 14.5 274 15.9
2005-02-28 09:15:37 51°9.975 2°36.445 280.4 14.5 274 15.7
2005-02-28 09:15:43 51°9.978 2°36.41 279.9 14.5 274 15.6
2005-02-28 09:15:47 51°9.979 2°36.383 280.1 14.5 274 15.6
2005-02-28 09:15:53 51°9.981 2°36.345 280.1 14.6 275 15.8
2005-02-28 09:15:57 51°9.983 2°36.317 280.1 14.6 275 15.8
2005-02-28 09:16:03 51°9.984 2°36.281 279.9 14.6 275 15.9
2005-02-28 09:16:08 51°9.986 2°36.249 280.1 14.6 275 15.8
2005-02-28 09:16:13 51°9.988 2°36.217 280.3 14.7 276 15.9
2005-02-28 09:16:17 51°9.991 2°36.188 280.4 14.7 276 15.9
2005-02-28 09:16:23 51°9.996 2°36.154 282.6 14.7 276 16
2005-02-28 09:16:28 51°10.001 2°36.126 287.4 14.4 285 16
2005-02-28 09:16:33 51°10.009 2°36.094 291.7 14.4 289 15.8
2005-02-28 09:16:37 51°10.017 2°36.069 297.2 14.4 289 15.8
2005-02-28 09:16:42 51°10.026 2°36.042 302 14.4 289 15.7
2005-02-28 09:16:48 51°10.037 2°36.011 304.8 14.4 289 15.6
2005-02-28 09:16:52 51°10.046 2°35.987 307.3 14.2 300 15.4
2005-02-28 09:16:57 51°10.056 2°35.961 308.5 14.2 301 15.1
2005-02-28 09:17:03 51°10.068 2°35.931 309.9 14.1 303 14.8
2005-02-28 09:17:08 51°10.079 2°35.906 310.5 14.2 302 14.3
2005-02-28 09:17:13 51°10.09 2°35.88 310.8 14.2 302 13.7
2005-02-28 09:17:17 51°10.1 2°35.857 311.5 14.2 302 13.2
2005-02-28 09:17:22 51°10.112 2°35.833 313.4 14.1 307 12.3
2005-02-28 09:17:27 51°10.123 2°35.811 315.2 14.1 307 11.8
2005-02-28 09:17:33 51°10.137 2°35.783 316.3 14.1 307 10.8
2005-02-28 09:17:37 51°10.149 2°35.763 317.6 14.1 307 10
2005-02-28 09:17:43 51°10.165 2°35.742 321.8 14.1 307 9.6
2005-02-28 09:17:47 51°10.176 2°35.727 326.3 14.1 307 9.2
2005-02-28 09:17:52 51°10.19 2°35.711 329.7 13.2 324 8.8
2005-02-28 09:17:57 51°10.207 2°35.692 332.3 13.2 324 8.6
2005-02-28 09:18:03 51°10.224 2°35.675 334.6 13 327 8.7
2005-02-28 09:18:07 51°10.237 2°35.663 336 13 328 8.7
2005-02-28 09:18:13 51°10.256 2°35.648 337.7 13 328 8.8
2005-02-28 09:18:17 51°10.269 2°35.639 341.3 13 328 8.9
2005-02-28 09:18:23 51°10.29 2°35.629 345.8 13 338 8.8
2005-02-28 09:18:27 51°10.304 2°35.623 350.8 12.9 344 8.9
2005-02-28 09:18:32 51°10.323 2°35.617 354.5 12.9 346 8.9
2005-02-28 09:18:37 51°10.341 2°35.614 357.9 12.9 346 9
2005-02-28 09:18:43 51°10.361 2°35.612 1.4 12.8 353 9.1
2005-02-28 09:18:48 51°10.377 2°35.611 4.2 12.7 357 9.1
2005-02-28 09:18:53 51°10.395 2°35.61 6.1 12.7 357 8.9
2005-02-28 09:18:57 51°10.411 2°35.611 7.6 12.7 -999 8.7
2005-02-28 09:19:01 51°10.423 2°35.612 9.4 12.7 -999 8.7
2005-02-28 09:19:08 51°10.447 2°35.617 12 12.5 5 8.4
2005-02-28 09:19:12 51°10.462 2°35.623 15.2 12.3 12 8.5
2005-02-28 09:19:17 51°10.478 2°35.63 19.4 12.2 16 8.3
2005-02-28 09:19:23 51°10.495 2°35.641 22.7 12.2 16 8.3
2005-02-28 09:19:28 51°10.51 2°35.653 27.1 12.2 16 8.3
2005-02-28 09:19:33 51°10.525 2°35.666 31.4 12.2 16 8.2
2005-02-28 09:19:37 51°10.537 2°35.678 34.6 12.2 16 8.1
2005-02-28 09:19:43 51°10.553 2°35.694 36.5 12 33 8.3
2005-02-28 09:19:47 51°10.564 2°35.706 38.5 12 33 8.4
2005-02-28 09:19:53 51°10.581 2°35.724 39.6 12 33 8.2
2005-02-28 09:19:57 51°10.593 2°35.737 40 12 33 8.3
2005-02-28 09:20:03 51°10.608 2°35.752 40 12 33 8.2
2005-02-28 09:20:07 51°10.62 2°35.764 39.7 12.1 33 8.2
2005-02-28 09:20:13 51°10.637 2°35.781 39 12.1 33 8.4
2005-02-28 09:20:17 51°10.65 2°35.793 37.9 12.1 31 8.4
2005-02-28 09:20:23 51°10.666 2°35.808 37.2 12.1 31 8.5
2005-02-28 09:20:27 51°10.678 2°35.82 36.7 12.1 31 8.5
2005-02-28 09:20:33 51°10.695 2°35.837 37.1 12.3 32 8.3
2005-02-28 09:20:37 51°10.708 2°35.851 38 12.3 32 8.3
2005-02-28 09:20:43 51°10.723 2°35.868 39.3 12.2 35 8.5
2005-02-28 09:20:48 51°10.736 2°35.883 40.5 12.2 36 8.6
2005-02-28 09:20:53 51°10.75 2°35.9 41.4 12.2 36 8.5
2005-02-28 09:20:57 51°10.762 2°35.915 42.2 12.2 36 8.5
2005-02-28 09:21:03 51°10.777 2°35.933 42.6 12.2 36 8.8
2005-02-28 09:21:08 51°10.791 2°35.949 42.4 12.3 37 8.5
2005-02-28 09:21:12 51°10.804 2°35.963 42 12.3 36 8.6
2005-02-28 09:21:17 51°10.818 2°35.979 41.3 12.3 36 8.7
2005-02-28 09:21:23 51°10.833 2°35.997 41.3 12.3 36 8.8
2005-02-28 09:21:27 51°10.844 2°36.009 41.1 12.3 36 8.8
2005-02-28 09:21:33 51°10.861 2°36.027 40.6 12.3 36 8.8
2005-02-28 09:21:37 51°10.873 2°36.041 41 12.3 35 9
2005-02-28 09:21:41 51°10.884 2°36.054 41.1 12.4 36 8.9
2005-02-28 09:21:48 51°10.902 2°36.073 41.1 12.4 36 8.9
2005-02-28 09:21:53 51°10.917 2°36.09 41.1 12.3 35 8.8
2005-02-28 09:21:58 51°10.931 2°36.107 41.3 12.3 35 9
2005-02-28 09:22:02 51°10.942 2°36.119 41.5 12.3 35 9
2005-02-28 09:22:07 51°10.955 2°36.135 41.7 12.3 36 9.1
2005-02-28 09:22:13 51°10.972 2°36.155 42 12.3 37 9.1
2005-02-28 09:22:17 51°10.984 2°36.169 42.2 12.2 37 8.9
2005-02-28 09:22:23 51°10.999 2°36.187 42.4 12.2 37 9
2005-02-28 09:22:27 51°11.01 2°36.2 42.7 12.3 37 9.1
2005-02-28 09:22:32 51°11.025 2°36.218 42.8 12.2 37 8.9
2005-02-28 09:22:37 51°11.037 2°36.232 42.5 12.2 37 9.1
2005-02-28 09:22:43 51°11.054 2°36.251 42.1 12.2 37 9.3
2005-02-28 09:22:47 51°11.065 2°36.264 42 12.2 37 9.1
2005-02-28 09:22:53 51°11.081 2°36.282 42 12.2 36 9.4
2005-02-28 09:22:58 51°11.095 2°36.299 42.2 12.1 36 9.4
2005-02-28 09:23:03 51°11.108 2°36.314 42.2 12.2 37 9.4
2005-02-28 09:23:07 51°11.119 2°36.327 42.3 12.1 37 9.3
2005-02-28 09:23:13 51°11.135 2°36.346 42.4 12.1 36 9.4
2005-02-28 09:23:18 51°11.149 2°36.362 42.6 12.1 36 9.4
2005-02-28 09:23:21 51°11.158 2°36.373 42.6 12.1 36 9.2
2005-02-28 09:23:28 51°11.175 2°36.394 42.5 12.1 37 9.4
2005-02-28 09:23:33 51°11.189 2°36.409 42.5 12.1 37 9.3
2005-02-28 09:23:37 51°11.201 2°36.424 42.1 12 37 9.5
2005-02-28 09:23:41 51°11.211 2°36.434 42.7 12 37 9.4
2005-02-28 09:23:48 51°11.23 2°36.457 42.3 12 37 9.6
2005-02-28 09:23:53 51°11.243 2°36.473 42.3 12 37 9.6
2005-02-28 09:23:57 51°11.255 2°36.487 42.7 12.1 36 9.6
2005-02-28 09:24:03 51°11.27 2°36.505 42.5 12.2 37 9.5
2005-02-28 09:24:07 51°11.281 2°36.517 42.6 12.1 36 9.7
2005-02-28 09:24:13 51°11.297 2°36.536 42.2 12.1 37 9.5
2005-02-28 09:24:18 51°11.311 2°36.552 42.3 12.1 37 9.6
2005-02-28 09:24:21 51°11.32 2°36.563 42.3 12.1 36 9.7
2005-02-28 09:24:27 51°11.335 2°36.579 41.9 12.1 36 9.5
2005-02-28 09:24:33 51°11.351 2°36.598 42.2 12.1 36 9.7
2005-02-28 09:24:37 51°11.364 2°36.612 41.9 12.1 36 9.7
2005-02-28 09:24:43 51°11.379 2°36.629 41.9 12.1 36 9.9
2005-02-28 09:24:48 51°11.392 2°36.645 42.1 12.1 36 9.8
2005-02-28 09:24:53 51°11.406 2°36.66 41.9 12 35 9.6
2005-02-28 09:24:57 51°11.418 2°36.674 41.8 12 36 9.6
2005-02-28 09:25:03 51°11.433 2°36.691 42 12.1 35 9.7
2005-02-28 09:25:07 51°11.444 2°36.703 42.1 11.9 35 9.7
2005-02-28 09:25:13 51°11.46 2°36.722 42 12 35 9.7
2005-02-28 09:25:17 51°11.471 2°36.733 41.9 12 35 9.7
2005-02-28 09:25:23 51°11.488 2°36.752 41.6 12 35 9.6
2005-02-28 09:25:28 51°11.5 2°36.765 41.7 12 35 9.9
2005-02-28 09:25:32 51°11.513 2°36.78 41.5 12 35 9.8
2005-02-28 09:25:37 51°11.527 2°36.795 41.5 12 35 9.8
2005-02-28 09:25:43 51°11.542 2°36.813 41.5 11.9 35 9.7
2005-02-28 09:25:48 51°11.555 2°36.827 41.5 11.9 35 9.7
2005-02-28 09:25:53 51°11.569 2°36.842 41.5 11.9 35 9.9
2005-02-28 09:25:57 51°11.581 2°36.856 41.6 11.9 35 9.9
2005-02-28 09:26:02 51°11.594 2°36.87 41.6 11.9 36 9.8
2005-02-28 09:26:08 51°11.61 2°36.888 42 11.9 36 9.9
2005-02-28 09:26:13 51°11.623 2°36.903 42.1 11.9 36 9.9
2005-02-28 09:26:18 51°11.636 2°36.918 42.2 11.9 36 10.1
2005-02-28 09:26:23 51°11.649 2°36.934 42.3 11.9 36 10.2
2005-02-28 09:26:28 51°11.663 2°36.95 42.5 11.9 36 10.2
2005-02-28 09:26:33 51°11.676 2°36.965 42.7 11.9 36 10.1
2005-02-28 09:26:37 51°11.688 2°36.979 42.8 12 36 10.1
2005-02-28 09:26:43 51°11.703 2°36.996 42.9 12 36 10.2
2005-02-28 09:26:47 51°11.714 2°37.009 42.8 12 36 10
2005-02-28 09:26:53 51°11.73 2°37.027 42.7 11.9 36 10.1
2005-02-28 09:26:58 51°11.744 2°37.043 42.6 11.9 36 10.2
2005-02-28 09:27:03 51°11.757 2°37.057 42.2 12 35 10.1
2005-02-28 09:27:07 51°11.768 2°37.069 41.8 11.9 35 10.1
2005-02-28 09:27:13 51°11.784 2°37.088 41.8 12 35 10.1
2005-02-28 09:27:18 51°11.798 2°37.103 41.8 12 35 9.9
2005-02-28 09:27:23 51°11.811 2°37.117 41.9 12 35 10.2
2005-02-28 09:27:27 51°11.823 2°37.129 41.6 12 35 10.1
2005-02-28 09:27:33 51°11.839 2°37.147 41.5 12 35 10.2
2005-02-28 09:27:38 51°11.852 2°37.163 41.6 12 35 10.2
2005-02-28 09:27:43 51°11.866 2°37.178 42 11.9 36 10.2
2005-02-28 09:27:47 51°11.877 2°37.19 42.4 11.9 36 10.1
2005-02-28 09:27:53 51°11.893 2°37.209 42.6 11.9 36 10.1
2005-02-28 09:27:57 51°11.905 2°37.223 42.8 11.9 36 10.1
2005-02-28 09:28:03 51°11.92 2°37.24 42.6 11.9 36 10
2005-02-28 09:28:07 51°11.931 2°37.252 42.3 11.9 35 10.2
2005-02-28 09:28:13 51°11.946 2°37.27 42.2 11.9 35 10
2005-02-28 09:28:17 51°11.959 2°37.283 42 11.9 35 10.1
2005-02-28 09:28:22 51°11.973 2°37.298 41.8 11.9 35 10.2
2005-02-28 09:28:28 51°11.987 2°37.314 41.7 12 35 10
2005-02-28 09:28:33 51°12.001 2°37.329 41.7 12 35 10.1
2005-02-28 09:28:37 51°12.014 2°37.342 41.5 12 35 10.1
2005-02-28 09:28:43 51°12.029 2°37.359 41.3 12 34 10
2005-02-28 09:28:48 51°12.043 2°37.374 41.3 12 34 10.2
2005-02-28 09:28:53 51°12.056 2°37.388 41.3 11.9 35 10.1
2005-02-28 09:28:58 51°12.07 2°37.404 41.4 12 34 10.1
2005-02-28 09:29:03 51°12.083 2°37.418 41.6 12 35 10.1
2005-02-28 09:29:08 51°12.096 2°37.432 41.8 11.9 35 10.2
2005-02-28 09:29:13 51°12.111 2°37.448 41.8 11.9 35 10
2005-02-28 09:29:17 51°12.123 2°37.461 42 11.9 35 10.2
2005-02-28 09:29:23 51°12.138 2°37.478 42 11.9 35 10.1
2005-02-28 09:29:27 51°12.149 2°37.491 42 11.9 35 10.3
2005-02-28 09:29:32 51°12.163 2°37.506 42 11.9 35 10.2
2005-02-28 09:29:38 51°12.178 2°37.523 42.1 11.9 35 10.3
2005-02-28 09:29:43 51°12.191 2°37.539 42 11.9 36 10.2
2005-02-28 09:29:47 51°12.202 2°37.55 42.4 11.9 35 10.2
2005-02-28 09:29:53 51°12.218 2°37.569 42.5 11.9 36 10.2
2005-02-28 09:29:57 51°12.229 2°37.581 42.8 11.9 36 10.4
2005-02-28 09:30:03 51°12.245 2°37.6 42.8 11.9 36 10.2
2005-02-28 09:30:07 51°12.256 2°37.611 42.7 11.8 35 10.4
2005-02-28 09:30:13 51°12.272 2°37.629 42.2 11.8 34 10.3
2005-02-28 09:30:18 51°12.286 2°37.644 41.9 11.8 34 10.4
2005-02-28 09:30:21 51°12.295 2°37.654 42.1 11.9 35 10.4
2005-02-28 09:30:28 51°12.313 2°37.674 42.1 11.9 35 10.3
2005-02-28 09:30:33 51°12.326 2°37.689 42 11.9 35 10.5
2005-02-28 09:30:37 51°12.339 2°37.703 42.2 11.9 35 10.6
2005-02-28 09:30:42 51°12.351 2°37.717 42.6 11.9 35 10.6
2005-02-28 09:30:48 51°12.367 2°37.735 42.6 11.9 35 10.6
2005-02-28 09:30:53 51°12.38 2°37.751 42.8 11.9 36 10.4
2005-02-28 09:30:58 51°12.393 2°37.766 43.1 11.9 37 10.5
2005-02-28 09:31:03 51°12.407 2°37.782 43 11.9 35 10.5
2005-02-28 09:31:08 51°12.42 2°37.795 42.8 11.9 35 10.7
2005-02-28 09:31:13 51°12.434 2°37.812 42.6 11.9 35 10.6
2005-02-28 09:31:17 51°12.446 2°37.825 42.6 11.9 35 10.5
2005-02-28 09:31:23 51°12.461 2°37.842 42.5 11.9 35 10.8
2005-02-28 09:31:27 51°12.472 2°37.854 42.4 11.9 35 10.8
2005-02-28 09:31:33 51°12.488 2°37.872 42.6 11.9 36 10.6
2005-02-28 09:31:38 51°12.501 2°37.888 42.7 11.9 36 10.7
2005-02-28 09:31:43 51°12.515 2°37.903 42.7 11.9 36 10.9
2005-02-28 09:31:47 51°12.526 2°37.916 42.8 11.9 35 11
2005-02-28 09:31:53 51°12.542 2°37.934 43.1 12 36 10.9
2005-02-28 09:31:58 51°12.555 2°37.95 42.9 12 36 10.8
2005-02-28 09:32:03 51°12.569 2°37.964 42.9 11.9 36 10.8
2005-02-28 09:32:07 51°12.579 2°37.976 42.8 11.9 36 11
2005-02-28 09:32:13 51°12.596 2°37.995 42.3 11.9 35 10.9
2005-02-28 09:32:18 51°12.61 2°38.01 42.3 11.9 35 10.8
2005-02-28 09:32:21 51°12.619 2°38.02 42.3 12 35 11.2
2005-02-28 09:32:27 51°12.634 2°38.037 42 11.9 36 11
2005-02-28 09:32:33 51°12.65 2°38.055 42.2 11.9 36 11.1
2005-02-28 09:32:37 51°12.662 2°38.069 42.8 11.9 36 10.9
2005-02-28 09:32:42 51°12.675 2°38.083 42.7 11.9 35 11.1
2005-02-28 09:32:48 51°12.689 2°38.1 42.4 11.9 35 11.1
2005-02-28 09:32:52 51°12.703 2°38.114 42.4 12 35 11
2005-02-28 09:32:58 51°12.717 2°38.131 42 12 35 11
2005-02-28 09:33:01 51°12.727 2°38.142 41.9 12 35 11.1
2005-02-28 09:33:08 51°12.745 2°38.161 41.7 11.9 34 11.2
2005-02-28 09:33:13 51°12.759 2°38.175 41.6 11.9 34 11.3
2005-02-28 09:33:17 51°12.771 2°38.189 41.5 12.1 35 11.3